sensor_id;sensor_type;location;lat;lon;timestamp;temperature;humidity
35463;DHT22;21578;47.892;9.970;2023-04-02T00:02:55;4.90;96.60
35463;DHT22;21578;47.892;9.970;2023-04-02T00:07:51;4.90;96.60
35463;DHT22;21578;47.892;9.970;2023-04-02T00:12:58;4.90;96.60
35463;DHT22;21578;47.892;9.970;2023-04-02T00:17:45;4.80;96.60
35463;DHT22;21578;47.892;9.970;2023-04-02T00:22:32;4.90;96.60
35463;DHT22;21578;47.892;9.970;2023-04-02T00:27:21;4.90;96.60
35463;DHT22;21578;47.892;9.970;2023-04-02T00:32:16;5.00;96.60
35463;DHT22;21578;47.892;9.970;2023-04-02T00:37:04;5.10;96.60
35463;DHT22;21578;47.892;9.970;2023-04-02T00:41:52;5.00;96.60
35463;DHT22;21578;47.892;9.970;2023-04-02T00:46:44;5.10;96.60
35463;DHT22;21578;47.892;9.970;2023-04-02T00:51:35;5.10;96.60
35463;DHT22;21578;47.892;9.970;2023-04-02T00:56:27;5.20;96.60
35463;DHT22;21578;47.892;9.970;2023-04-02T01:01:15;5.20;96.60
35463;DHT22;21578;47.892;9.970;2023-04-02T01:06:07;5.10;96.60
35463;DHT22;21578;47.892;9.970;2023-04-02T01:11:01;5.00;96.60
35463;DHT22;21578;47.892;9.970;2023-04-02T01:15:53;5.00;96.60
35463;DHT22;21578;47.892;9.970;2023-04-02T01:26:13;4.80;96.60
35463;DHT22;21578;47.892;9.970;2023-04-02T01:31:04;4.70;96.60
35463;DHT22;21578;47.892;9.970;2023-04-02T01:35:56;4.60;96.60
35463;DHT22;21578;47.892;9.970;2023-04-02T01:40:49;4.60;96.60
35463;DHT22;21578;47.892;9.970;2023-04-02T01:45:38;4.60;96.60
35463;DHT22;21578;47.892;9.970;2023-04-02T01:50:28;4.60;96.60
35463;DHT22;21578;47.892;9.970;2023-04-02T01:55:22;4.60;96.60
35463;DHT22;21578;47.892;9.970;2023-04-02T02:00:11;4.60;96.60
35463;DHT22;21578;47.892;9.970;2023-04-02T02:05:00;4.60;96.60
35463;DHT22;21578;47.892;9.970;2023-04-02T02:09:49;4.50;96.60
35463;DHT22;21578;47.892;9.970;2023-04-02T02:14:36;4.40;96.60
35463;DHT22;21578;47.892;9.970;2023-04-02T02:19:26;4.40;96.60
35463;DHT22;21578;47.892;9.970;2023-04-02T02:24:18;4.40;96.60
35463;DHT22;21578;47.892;9.970;2023-04-02T02:29:10;4.40;96.60
35463;DHT22;21578;47.892;9.970;2023-04-02T02:34:02;4.50;96.60
35463;DHT22;21578;47.892;9.970;2023-04-02T02:38:55;4.40;96.60
35463;DHT22;21578;47.892;9.970;2023-04-02T02:43:49;4.30;96.60
35463;DHT22;21578;47.892;9.970;2023-04-02T02:48:40;4.30;96.60
35463;DHT22;21578;47.892;9.970;2023-04-02T02:53:28;4.20;96.60
35463;DHT22;21578;47.892;9.970;2023-04-02T02:58:18;4.20;96.60
35463;DHT22;21578;47.892;9.970;2023-04-02T03:03:10;4.20;96.60
35463;DHT22;21578;47.892;9.970;2023-04-02T03:08:03;4.20;96.60
35463;DHT22;21578;47.892;9.970;2023-04-02T03:12:55;4.20;96.60
35463;DHT22;21578;47.892;9.970;2023-04-02T03:17:48;4.20;96.60
35463;DHT22;21578;47.892;9.970;2023-04-02T03:22:39;4.10;96.60
35463;DHT22;21578;47.892;9.970;2023-04-02T03:27:33;4.20;96.60
35463;DHT22;21578;47.892;9.970;2023-04-02T03:32:22;4.20;96.60
35463;DHT22;21578;47.892;9.970;2023-04-02T03:37:16;4.20;96.60
35463;DHT22;21578;47.892;9.970;2023-04-02T03:42:07;4.30;96.60
35463;DHT22;21578;47.892;9.970;2023-04-02T03:47:00;4.30;96.60
35463;DHT22;21578;47.892;9.970;2023-04-02T03:51:53;4.40;96.60
35463;DHT22;21578;47.892;9.970;2023-04-02T03:56:42;4.40;96.60
35463;DHT22;21578;47.892;9.970;2023-04-02T04:01:34;4.50;96.60
35463;DHT22;21578;47.892;9.970;2023-04-02T04:06:25;4.50;96.60
35463;DHT22;21578;47.892;9.970;2023-04-02T04:11:16;4.50;96.60
35463;DHT22;21578;47.892;9.970;2023-04-02T04:16:06;4.60;96.60
35463;DHT22;21578;47.892;9.970;2023-04-02T04:20:57;4.60;96.60
35463;DHT22;21578;47.892;9.970;2023-04-02T04:25:46;4.70;96.60
35463;DHT22;21578;47.892;9.970;2023-04-02T04:30:43;4.70;96.60
35463;DHT22;21578;47.892;9.970;2023-04-02T04:35:35;4.80;96.60
35463;DHT22;21578;47.892;9.970;2023-04-02T04:40:26;4.80;96.60
35463;DHT22;21578;47.892;9.970;2023-04-02T04:45:32;4.80;96.60
35463;DHT22;21578;47.892;9.970;2023-04-02T04:50:27;4.90;96.60
35463;DHT22;21578;47.892;9.970;2023-04-02T04:55:23;4.90;96.60
35463;DHT22;21578;47.892;9.970;2023-04-02T05:00:15;4.90;96.60
35463;DHT22;21578;47.892;9.970;2023-04-02T05:05:15;4.90;96.60
35463;DHT22;21578;47.892;9.970;2023-04-02T05:10:08;5.00;96.60
35463;DHT22;21578;47.892;9.970;2023-04-02T05:15:02;5.00;96.60
35463;DHT22;21578;47.892;9.970;2023-04-02T05:19:53;5.00;96.60
35463;DHT22;21578;47.892;9.970;2023-04-02T05:24:50;5.10;96.60
35463;DHT22;21578;47.892;9.970;2023-04-02T05:29:41;5.20;96.60
35463;DHT22;21578;47.892;9.970;2023-04-02T05:34:32;5.20;96.60
35463;DHT22;21578;47.892;9.970;2023-04-02T05:39:22;5.20;96.60
35463;DHT22;21578;47.892;9.970;2023-04-02T05:44:16;5.30;96.60
35463;DHT22;21578;47.892;9.970;2023-04-02T05:49:07;5.30;96.60
35463;DHT22;21578;47.892;9.970;2023-04-02T05:53:58;5.30;96.60
35463;DHT22;21578;47.892;9.970;2023-04-02T05:58:48;5.40;96.60
35463;DHT22;21578;47.892;9.970;2023-04-02T06:03:42;5.40;96.60
35463;DHT22;21578;47.892;9.970;2023-04-02T06:08:33;5.50;96.60
35463;DHT22;21578;47.892;9.970;2023-04-02T06:13:22;5.50;96.60
35463;DHT22;21578;47.892;9.970;2023-04-02T06:18:15;5.60;96.60
35463;DHT22;21578;47.892;9.970;2023-04-02T06:23:08;5.60;96.60
35463;DHT22;21578;47.892;9.970;2023-04-02T06:27:59;5.70;96.60
35463;DHT22;21578;47.892;9.970;2023-04-02T06:32:47;5.70;96.60
35463;DHT22;21578;47.892;9.970;2023-04-02T06:37:36;5.80;96.60
35463;DHT22;21578;47.892;9.970;2023-04-02T06:42:27;5.90;96.60
35463;DHT22;21578;47.892;9.970;2023-04-02T06:47:24;6.00;96.60
35463;DHT22;21578;47.892;9.970;2023-04-02T06:52:17;6.10;96.60
35463;DHT22;21578;47.892;9.970;2023-04-02T06:57:06;6.20;96.60
35463;DHT22;21578;47.892;9.970;2023-04-02T07:01:57;6.20;96.60
35463;DHT22;21578;47.892;9.970;2023-04-02T07:06:45;6.30;96.60
35463;DHT22;21578;47.892;9.970;2023-04-02T07:11:33;6.30;96.60
35463;DHT22;21578;47.892;9.970;2023-04-02T07:16:21;6.40;96.60
35463;DHT22;21578;47.892;9.970;2023-04-02T07:21:11;6.50;96.60
35463;DHT22;21578;47.892;9.970;2023-04-02T07:25:58;6.50;96.60
35463;DHT22;21578;47.892;9.970;2023-04-02T07:30:47;6.60;96.60
35463;DHT22;21578;47.892;9.970;2023-04-02T07:35:34;6.70;96.60
35463;DHT22;21578;47.892;9.970;2023-04-02T07:40:22;6.80;96.60
35463;DHT22;21578;47.892;9.970;2023-04-02T07:45:10;7.00;96.60
35463;DHT22;21578;47.892;9.970;2023-04-02T07:49:57;7.00;96.60
35463;DHT22;21578;47.892;9.970;2023-04-02T07:54:44;7.10;96.60
35463;DHT22;21578;47.892;9.970;2023-04-02T07:59:33;7.10;96.60
35463;DHT22;21578;47.892;9.970;2023-04-02T08:04:21;7.20;96.60
35463;DHT22;21578;47.892;9.970;2023-04-02T08:09:08;7.30;96.60
35463;DHT22;21578;47.892;9.970;2023-04-02T08:13:55;7.40;96.60
35463;DHT22;21578;47.892;9.970;2023-04-02T08:18:43;7.40;96.60
35463;DHT22;21578;47.892;9.970;2023-04-02T08:23:32;7.50;96.60
35463;DHT22;21578;47.892;9.970;2023-04-02T08:28:20;7.60;96.60
35463;DHT22;21578;47.892;9.970;2023-04-02T08:33:07;7.70;96.60
35463;DHT22;21578;47.892;9.970;2023-04-02T08:37:56;7.90;96.60
35463;DHT22;21578;47.892;9.970;2023-04-02T08:42:47;7.90;96.60
35463;DHT22;21578;47.892;9.970;2023-04-02T08:47:38;8.00;96.60
35463;DHT22;21578;47.892;9.970;2023-04-02T08:52:27;8.10;96.60
35463;DHT22;21578;47.892;9.970;2023-04-02T08:57:26;8.20;96.60
35463;DHT22;21578;47.892;9.970;2023-04-02T09:02:29;8.40;96.60
35463;DHT22;21578;47.892;9.970;2023-04-02T09:07:17;8.50;96.60
35463;DHT22;21578;47.892;9.970;2023-04-02T09:12:06;8.40;96.60
35463;DHT22;21578;47.892;9.970;2023-04-02T09:17:03;8.20;96.60
35463;DHT22;21578;47.892;9.970;2023-04-02T09:22:05;8.10;96.60
35463;DHT22;21578;47.892;9.970;2023-04-02T09:26:53;8.00;96.60
35463;DHT22;21578;47.892;9.970;2023-04-02T09:31:43;8.10;96.60
35463;DHT22;21578;47.892;9.970;2023-04-02T09:36:36;8.40;96.60
35463;DHT22;21578;47.892;9.970;2023-04-02T09:41:26;8.40;96.60
35463;DHT22;21578;47.892;9.970;2023-04-02T09:46:17;8.50;96.60
35463;DHT22;21578;47.892;9.970;2023-04-02T09:51:12;8.30;96.60
35463;DHT22;21578;47.892;9.970;2023-04-02T09:56:11;8.30;96.60
35463;DHT22;21578;47.892;9.970;2023-04-02T10:00:59;8.40;96.60
35463;DHT22;21578;47.892;9.970;2023-04-02T10:05:46;8.50;96.60
35463;DHT22;21578;47.892;9.970;2023-04-02T10:10:37;8.50;96.30
35463;DHT22;21578;47.892;9.970;2023-04-02T10:15:30;9.00;96.20
35463;DHT22;21578;47.892;9.970;2023-04-02T10:20:21;9.40;93.50
35463;DHT22;21578;47.892;9.970;2023-04-02T10:25:13;9.80;90.00
35463;DHT22;21578;47.892;9.970;2023-04-02T10:30:10;10.00;90.90
35463;DHT22;21578;47.892;9.970;2023-04-02T10:35:01;10.20;89.60
35463;DHT22;21578;47.892;9.970;2023-04-02T10:39:51;10.00;87.40
35463;DHT22;21578;47.892;9.970;2023-04-02T10:44:43;10.00;88.80
35463;DHT22;21578;47.892;9.970;2023-04-02T10:49:40;9.70;88.40
35463;DHT22;21578;47.892;9.970;2023-04-02T10:54:35;9.70;88.80
35463;DHT22;21578;47.892;9.970;2023-04-02T12:59:46;10.40;96.60
35463;DHT22;21578;47.892;9.970;2023-04-02T13:04:45;10.60;96.60
35463;DHT22;21578;47.892;9.970;2023-04-02T13:09:34;10.80;94.30
35463;DHT22;21578;47.892;9.970;2023-04-02T13:14:23;10.90;95.10
35463;DHT22;21578;47.892;9.970;2023-04-02T13:19:21;11.10;92.60
35463;DHT22;21578;47.892;9.970;2023-04-02T13:24:15;11.20;92.50
35463;DHT22;21578;47.892;9.970;2023-04-02T13:29:16;11.40;94.10
35463;DHT22;21578;47.892;9.970;2023-04-02T13:34:04;11.50;92.20
35463;DHT22;21578;47.892;9.970;2023-04-02T13:38:53;11.60;89.90
35463;DHT22;21578;47.892;9.970;2023-04-02T13:43:40;11.50;90.90
35463;DHT22;21578;47.892;9.970;2023-04-02T13:48:27;11.40;89.80
35463;DHT22;21578;47.892;9.970;2023-04-02T13:53:26;11.20;92.10
35463;DHT22;21578;47.892;9.970;2023-04-02T13:58:15;11.00;91.10
35463;DHT22;21578;47.892;9.970;2023-04-02T14:03:06;11.10;92.20
35463;DHT22;21578;47.892;9.970;2023-04-02T14:08:04;11.30;90.90
35463;DHT22;21578;47.892;9.970;2023-04-02T14:13:08;11.80;91.40
35463;DHT22;21578;47.892;9.970;2023-04-02T14:18:17;11.80;88.10
35463;DHT22;21578;47.892;9.970;2023-04-02T14:23:26;11.60;88.10
35463;DHT22;21578;47.892;9.970;2023-04-02T14:28:25;10.90;94.00
35463;DHT22;21578;47.892;9.970;2023-04-02T14:33:29;9.50;95.30
35463;DHT22;21578;47.892;9.970;2023-04-02T14:38:21;9.10;96.60
35463;DHT22;21578;47.892;9.970;2023-04-02T14:43:14;9.10;96.60
35463;DHT22;21578;47.892;9.970;2023-04-02T14:48:09;9.30;96.60
35463;DHT22;21578;47.892;9.970;2023-04-02T14:53:03;9.50;96.60
35463;DHT22;21578;47.892;9.970;2023-04-02T14:57:54;9.50;96.60
35463;DHT22;21578;47.892;9.970;2023-04-02T15:02:44;9.50;96.60
35463;DHT22;21578;47.892;9.970;2023-04-02T15:07:37;9.60;96.60
35463;DHT22;21578;47.892;9.970;2023-04-02T15:23:57;9.70;96.60
35463;DHT22;21578;47.892;9.970;2023-04-02T15:28:50;9.80;96.60
35463;DHT22;21578;47.892;9.970;2023-04-02T15:33:43;9.80;96.60
35463;DHT22;21578;47.892;9.970;2023-04-02T15:38:34;9.80;96.60
35463;DHT22;21578;47.892;9.970;2023-04-02T15:43:28;9.70;96.60
35463;DHT22;21578;47.892;9.970;2023-04-02T15:48:32;9.50;96.60
35463;DHT22;21578;47.892;9.970;2023-04-02T15:53:33;9.20;96.60
35463;DHT22;21578;47.892;9.970;2023-04-02T15:58:30;8.90;96.60
35463;DHT22;21578;47.892;9.970;2023-04-02T16:03:51;8.80;96.60
35463;DHT22;21578;47.892;9.970;2023-04-02T16:08:50;8.80;96.60
35463;DHT22;21578;47.892;9.970;2023-04-02T16:13:44;8.80;96.60
35463;DHT22;21578;47.892;9.970;2023-04-02T16:18:47;8.70;96.60
35463;DHT22;21578;47.892;9.970;2023-04-02T16:23:37;8.80;96.60
35463;DHT22;21578;47.892;9.970;2023-04-02T16:28:37;8.80;96.60
35463;DHT22;21578;47.892;9.970;2023-04-02T16:33:34;8.90;96.60
35463;DHT22;21578;47.892;9.970;2023-04-02T16:38:33;8.80;96.60
35463;DHT22;21578;47.892;9.970;2023-04-02T16:43:30;8.80;96.60
35463;DHT22;21578;47.892;9.970;2023-04-02T16:48:25;8.80;96.60
35463;DHT22;21578;47.892;9.970;2023-04-02T16:53:24;8.70;96.60
35463;DHT22;21578;47.892;9.970;2023-04-02T16:58:26;8.50;96.60
35463;DHT22;21578;47.892;9.970;2023-04-02T17:03:32;8.40;96.60
35463;DHT22;21578;47.892;9.970;2023-04-02T17:08:23;8.30;96.60
35463;DHT22;21578;47.892;9.970;2023-04-02T17:13:17;8.20;96.60
35463;DHT22;21578;47.892;9.970;2023-04-02T17:18:13;8.20;96.60
35463;DHT22;21578;47.892;9.970;2023-04-02T17:23:01;8.00;96.60
35463;DHT22;21578;47.892;9.970;2023-04-02T17:27:53;7.90;96.60
35463;DHT22;21578;47.892;9.970;2023-04-02T17:32:40;7.80;96.60
35463;DHT22;21578;47.892;9.970;2023-04-02T17:37:31;7.70;96.60
35463;DHT22;21578;47.892;9.970;2023-04-02T17:42:41;7.50;96.60
35463;DHT22;21578;47.892;9.970;2023-04-02T17:47:39;7.30;96.60
35463;DHT22;21578;47.892;9.970;2023-04-02T17:52:32;7.10;96.60
35463;DHT22;21578;47.892;9.970;2023-04-02T17:57:29;7.00;96.60
35463;DHT22;21578;47.892;9.970;2023-04-02T18:02:37;6.90;96.60
35463;DHT22;21578;47.892;9.970;2023-04-02T18:07:36;6.90;96.60
35463;DHT22;21578;47.892;9.970;2023-04-02T18:12:34;6.90;96.60
35463;DHT22;21578;47.892;9.970;2023-04-02T18:17:31;6.90;96.60
35463;DHT22;21578;47.892;9.970;2023-04-02T18:22:29;6.70;96.60
35463;DHT22;21578;47.892;9.970;2023-04-02T18:27:33;6.80;96.60
35463;DHT22;21578;47.892;9.970;2023-04-02T18:37:59;6.70;96.60
35463;DHT22;21578;47.892;9.970;2023-04-02T18:42:57;6.60;96.60
35463;DHT22;21578;47.892;9.970;2023-04-02T18:47:52;6.50;96.60
35463;DHT22;21578;47.892;9.970;2023-04-02T18:52:41;6.40;96.60
35463;DHT22;21578;47.892;9.970;2023-04-02T18:57:32;6.40;96.60
35463;DHT22;21578;47.892;9.970;2023-04-02T19:02:38;6.40;96.60
35463;DHT22;21578;47.892;9.970;2023-04-02T19:07:27;6.30;96.60
35463;DHT22;21578;47.892;9.970;2023-04-02T19:12:17;6.20;96.60
35463;DHT22;21578;47.892;9.970;2023-04-02T19:17:13;6.10;96.60
35463;DHT22;21578;47.892;9.970;2023-04-02T19:22:21;6.10;96.60
35463;DHT22;21578;47.892;9.970;2023-04-02T19:27:19;6.10;96.60
35463;DHT22;21578;47.892;9.970;2023-04-02T19:32:13;6.00;96.60
35463;DHT22;21578;47.892;9.970;2023-04-02T19:37:11;6.10;96.60
35463;DHT22;21578;47.892;9.970;2023-04-02T19:42:04;5.90;96.60
35463;DHT22;21578;47.892;9.970;2023-04-02T19:46:54;5.80;96.60
35463;DHT22;21578;47.892;9.970;2023-04-02T19:51:42;5.80;96.60
35463;DHT22;21578;47.892;9.970;2023-04-02T19:56:29;5.80;96.60
35463;DHT22;21578;47.892;9.970;2023-04-02T20:01:16;5.70;96.60
35463;DHT22;21578;47.892;9.970;2023-04-02T20:06:04;5.80;96.60
35463;DHT22;21578;47.892;9.970;2023-04-02T20:10:52;5.60;96.60
35463;DHT22;21578;47.892;9.970;2023-04-02T20:15:39;5.60;96.60
35463;DHT22;21578;47.892;9.970;2023-04-02T20:20:26;5.50;96.60
35463;DHT22;21578;47.892;9.970;2023-04-02T20:25:13;5.50;96.60
35463;DHT22;21578;47.892;9.970;2023-04-02T20:30:02;5.40;96.60
35463;DHT22;21578;47.892;9.970;2023-04-02T20:34:49;5.30;96.60
35463;DHT22;21578;47.892;9.970;2023-04-02T20:39:36;5.20;96.60
35463;DHT22;21578;47.892;9.970;2023-04-02T20:44:23;5.10;96.60
35463;DHT22;21578;47.892;9.970;2023-04-02T20:49:12;5.00;96.60
35463;DHT22;21578;47.892;9.970;2023-04-02T20:53:59;5.00;96.60
35463;DHT22;21578;47.892;9.970;2023-04-02T20:58:45;4.90;96.60
35463;DHT22;21578;47.892;9.970;2023-04-02T21:03:32;4.90;96.60
35463;DHT22;21578;47.892;9.970;2023-04-02T21:08:21;4.90;96.60
35463;DHT22;21578;47.892;9.970;2023-04-02T21:13:08;4.70;96.60
35463;DHT22;21578;47.892;9.970;2023-04-02T21:17:55;4.70;96.60
35463;DHT22;21578;47.892;9.970;2023-04-02T21:22:42;4.70;96.60
35463;DHT22;21578;47.892;9.970;2023-04-02T21:27:30;4.70;96.60
35463;DHT22;21578;47.892;9.970;2023-04-02T21:32:17;4.60;96.60
35463;DHT22;21578;47.892;9.970;2023-04-02T21:37:04;4.70;96.60
35463;DHT22;21578;47.892;9.970;2023-04-02T21:41:51;4.70;96.60
35463;DHT22;21578;47.892;9.970;2023-04-02T21:46:41;4.60;96.60
35463;DHT22;21578;47.892;9.970;2023-04-02T21:51:29;4.70;96.60
35463;DHT22;21578;47.892;9.970;2023-04-02T21:56:18;4.60;96.60
35463;DHT22;21578;47.892;9.970;2023-04-02T22:01:05;4.50;96.60
35463;DHT22;21578;47.892;9.970;2023-04-02T22:06:06;4.40;96.60
35463;DHT22;21578;47.892;9.970;2023-04-02T22:10:53;4.50;96.60
35463;DHT22;21578;47.892;9.970;2023-04-02T22:15:40;4.40;96.60
35463;DHT22;21578;47.892;9.970;2023-04-02T22:20:26;4.30;96.60
35463;DHT22;21578;47.892;9.970;2023-04-02T22:25:15;4.30;96.60
35463;DHT22;21578;47.892;9.970;2023-04-02T22:30:02;4.20;96.60
35463;DHT22;21578;47.892;9.970;2023-04-02T22:34:49;4.00;96.60
35463;DHT22;21578;47.892;9.970;2023-04-02T22:39:36;3.80;96.60
35463;DHT22;21578;47.892;9.970;2023-04-02T22:44:24;3.70;96.60
35463;DHT22;21578;47.892;9.970;2023-04-02T22:49:11;3.50;96.60
35463;DHT22;21578;47.892;9.970;2023-04-02T22:54:03;3.30;96.60
35463;DHT22;21578;47.892;9.970;2023-04-02T22:58:50;3.20;96.60
35463;DHT22;21578;47.892;9.970;2023-04-02T23:03:39;3.00;96.60
35463;DHT22;21578;47.892;9.970;2023-04-02T23:08:26;2.90;96.60
35463;DHT22;21578;47.892;9.970;2023-04-02T23:13:13;3.00;96.60
35463;DHT22;21578;47.892;9.970;2023-04-02T23:17:59;2.90;96.60
35463;DHT22;21578;47.892;9.970;2023-04-02T23:22:48;2.80;96.60
35463;DHT22;21578;47.892;9.970;2023-04-02T23:27:35;2.70;96.60
35463;DHT22;21578;47.892;9.970;2023-04-02T23:32:22;2.70;96.60
35463;DHT22;21578;47.892;9.970;2023-04-02T23:37:09;2.60;96.60
35463;DHT22;21578;47.892;9.970;2023-04-02T23:41:58;2.50;96.60
35463;DHT22;21578;47.892;9.970;2023-04-02T23:46:45;2.40;96.60
35463;DHT22;21578;47.892;9.970;2023-04-02T23:51:32;2.30;96.60
35463;DHT22;21578;47.892;9.970;2023-04-02T23:56:19;2.20;96.60
